sensor_id;sensor_type;location;lat;lon;timestamp;P1;durP1;ratioP1;P2;durP2;ratioP2
15833;SDS011;8017;50.812;4.934;2023-05-02T00:01:07;48.40;;;34.63;;
15833;SDS011;8017;50.812;4.934;2023-05-02T00:04:09;52.93;;;35.13;;
15833;SDS011;8017;50.812;4.934;2023-05-02T00:07:11;52.07;;;36.17;;
15833;SDS011;8017;50.812;4.934;2023-05-02T00:10:13;50.73;;;35.97;;
15833;SDS011;8017;50.812;4.934;2023-05-02T00:13:14;50.60;;;34.67;;
15833;SDS011;8017;50.812;4.934;2023-05-02T00:16:18;51.37;;;35.90;;
15833;SDS011;8017;50.812;4.934;2023-05-02T00:19:20;47.63;;;34.83;;
15833;SDS011;8017;50.812;4.934;2023-05-02T00:22:22;49.13;;;35.53;;
15833;SDS011;8017;50.812;4.934;2023-05-02T00:25:24;49.57;;;37.00;;
15833;SDS011;8017;50.812;4.934;2023-05-02T00:28:26;52.97;;;36.50;;
15833;SDS011;8017;50.812;4.934;2023-05-02T00:31:29;50.97;;;35.50;;
15833;SDS011;8017;50.812;4.934;2023-05-02T00:34:31;52.83;;;36.30;;
15833;SDS011;8017;50.812;4.934;2023-05-02T00:37:33;50.70;;;35.13;;
15833;SDS011;8017;50.812;4.934;2023-05-02T00:40:42;48.30;;;33.67;;
15833;SDS011;8017;50.812;4.934;2023-05-02T00:43:45;49.40;;;34.10;;
15833;SDS011;8017;50.812;4.934;2023-05-02T00:46:49;52.83;;;35.07;;
15833;SDS011;8017;50.812;4.934;2023-05-02T00:49:52;48.07;;;35.30;;
15833;SDS011;8017;50.812;4.934;2023-05-02T00:52:54;54.17;;;37.20;;
15833;SDS011;8017;50.812;4.934;2023-05-02T00:55:56;54.87;;;37.87;;
15833;SDS011;8017;50.812;4.934;2023-05-02T00:58:58;54.70;;;38.30;;
15833;SDS011;8017;50.812;4.934;2023-05-02T01:02:07;55.83;;;38.57;;
15833;SDS011;8017;50.812;4.934;2023-05-02T01:05:14;55.37;;;37.97;;
15833;SDS011;8017;50.812;4.934;2023-05-02T01:08:24;57.13;;;38.03;;
15833;SDS011;8017;50.812;4.934;2023-05-02T01:11:36;59.27;;;36.97;;
15833;SDS011;8017;50.812;4.934;2023-05-02T01:14:46;54.80;;;37.50;;
15833;SDS011;8017;50.812;4.934;2023-05-02T01:17:54;63.67;;;39.57;;
15833;SDS011;8017;50.812;4.934;2023-05-02T01:20:58;63.13;;;39.10;;
15833;SDS011;8017;50.812;4.934;2023-05-02T01:24:04;64.10;;;39.33;;
15833;SDS011;8017;50.812;4.934;2023-05-02T01:27:14;57.93;;;38.27;;
15833;SDS011;8017;50.812;4.934;2023-05-02T01:30:27;58.30;;;37.83;;
15833;SDS011;8017;50.812;4.934;2023-05-02T01:33:32;66.03;;;40.77;;
15833;SDS011;8017;50.812;4.934;2023-05-02T01:36:37;65.17;;;39.67;;
15833;SDS011;8017;50.812;4.934;2023-05-02T01:39:42;67.13;;;39.53;;
15833;SDS011;8017;50.812;4.934;2023-05-02T01:42:45;61.37;;;39.63;;
15833;SDS011;8017;50.812;4.934;2023-05-02T01:45:51;60.70;;;39.27;;
15833;SDS011;8017;50.812;4.934;2023-05-02T01:48:56;62.43;;;39.23;;
15833;SDS011;8017;50.812;4.934;2023-05-02T01:52:01;68.77;;;41.50;;
15833;SDS011;8017;50.812;4.934;2023-05-02T01:55:06;60.00;;;39.53;;
15833;SDS011;8017;50.812;4.934;2023-05-02T01:58:11;67.03;;;42.23;;
15833;SDS011;8017;50.812;4.934;2023-05-02T02:01:15;63.87;;;41.63;;
15833;SDS011;8017;50.812;4.934;2023-05-02T02:04:18;62.00;;;39.13;;
15833;SDS011;8017;50.812;4.934;2023-05-02T02:07:21;60.63;;;39.77;;
15833;SDS011;8017;50.812;4.934;2023-05-02T02:10:23;65.77;;;40.77;;
15833;SDS011;8017;50.812;4.934;2023-05-02T02:13:30;66.00;;;40.70;;
15833;SDS011;8017;50.812;4.934;2023-05-02T02:16:38;57.93;;;39.07;;
15833;SDS011;8017;50.812;4.934;2023-05-02T02:19:42;66.80;;;40.93;;
15833;SDS011;8017;50.812;4.934;2023-05-02T02:22:45;63.87;;;39.60;;
15833;SDS011;8017;50.812;4.934;2023-05-02T02:25:48;64.13;;;40.77;;
15833;SDS011;8017;50.812;4.934;2023-05-02T02:28:52;61.47;;;40.77;;
15833;SDS011;8017;50.812;4.934;2023-05-02T02:31:56;62.00;;;41.40;;
15833;SDS011;8017;50.812;4.934;2023-05-02T02:34:58;62.67;;;39.07;;
15833;SDS011;8017;50.812;4.934;2023-05-02T02:38:01;57.63;;;37.43;;
15833;SDS011;8017;50.812;4.934;2023-05-02T02:41:12;64.07;;;38.97;;
15833;SDS011;8017;50.812;4.934;2023-05-02T02:44:21;62.67;;;40.37;;
15833;SDS011;8017;50.812;4.934;2023-05-02T02:47:39;72.57;;;42.00;;
15833;SDS011;8017;50.812;4.934;2023-05-02T02:50:48;60.57;;;38.07;;
15833;SDS011;8017;50.812;4.934;2023-05-02T02:54:02;61.83;;;39.77;;
15833;SDS011;8017;50.812;4.934;2023-05-02T02:57:12;67.10;;;41.07;;
15833;SDS011;8017;50.812;4.934;2023-05-02T03:00:18;62.83;;;39.47;;
15833;SDS011;8017;50.812;4.934;2023-05-02T03:03:23;62.70;;;38.93;;
15833;SDS011;8017;50.812;4.934;2023-05-02T03:06:28;64.13;;;38.90;;
15833;SDS011;8017;50.812;4.934;2023-05-02T03:09:39;61.97;;;39.70;;
15833;SDS011;8017;50.812;4.934;2023-05-02T03:12:41;55.07;;;36.77;;
15833;SDS011;8017;50.812;4.934;2023-05-02T03:19:29;58.57;;;37.50;;
15833;SDS011;8017;50.812;4.934;2023-05-02T03:22:31;55.73;;;36.83;;
15833;SDS011;8017;50.812;4.934;2023-05-02T03:25:33;51.57;;;35.40;;
15833;SDS011;8017;50.812;4.934;2023-05-02T03:28:35;49.33;;;34.87;;
15833;SDS011;8017;50.812;4.934;2023-05-02T03:31:37;52.10;;;35.20;;
15833;SDS011;8017;50.812;4.934;2023-05-02T03:34:40;53.00;;;35.10;;
15833;SDS011;8017;50.812;4.934;2023-05-02T03:37:42;52.70;;;36.17;;
15833;SDS011;8017;50.812;4.934;2023-05-02T03:40:44;45.37;;;32.00;;
15833;SDS011;8017;50.812;4.934;2023-05-02T03:43:46;51.10;;;34.73;;
15833;SDS011;8017;50.812;4.934;2023-05-02T03:46:48;52.27;;;34.17;;
15833;SDS011;8017;50.812;4.934;2023-05-02T03:49:51;48.97;;;33.73;;
15833;SDS011;8017;50.812;4.934;2023-05-02T03:52:53;45.00;;;31.67;;
15833;SDS011;8017;50.812;4.934;2023-05-02T03:55:55;44.10;;;30.63;;
15833;SDS011;8017;50.812;4.934;2023-05-02T03:58:57;41.00;;;29.30;;
15833;SDS011;8017;50.812;4.934;2023-05-02T04:01:59;42.77;;;30.57;;
15833;SDS011;8017;50.812;4.934;2023-05-02T04:05:02;41.37;;;28.93;;
15833;SDS011;8017;50.812;4.934;2023-05-02T04:08:05;42.33;;;29.53;;
15833;SDS011;8017;50.812;4.934;2023-05-02T04:11:07;41.30;;;28.23;;
15833;SDS011;8017;50.812;4.934;2023-05-02T04:14:08;45.77;;;30.80;;
15833;SDS011;8017;50.812;4.934;2023-05-02T04:17:10;40.10;;;28.07;;
15833;SDS011;8017;50.812;4.934;2023-05-02T04:20:14;38.03;;;27.17;;
15833;SDS011;8017;50.812;4.934;2023-05-02T04:23:16;39.90;;;27.90;;
15833;SDS011;8017;50.812;4.934;2023-05-02T04:26:18;41.47;;;27.97;;
15833;SDS011;8017;50.812;4.934;2023-05-02T04:29:20;37.40;;;26.83;;
15833;SDS011;8017;50.812;4.934;2023-05-02T04:32:22;38.60;;;26.33;;
15833;SDS011;8017;50.812;4.934;2023-05-02T04:35:26;41.57;;;28.77;;
15833;SDS011;8017;50.812;4.934;2023-05-02T04:38:27;39.27;;;27.30;;
15833;SDS011;8017;50.812;4.934;2023-05-02T04:41:29;39.70;;;27.57;;
15833;SDS011;8017;50.812;4.934;2023-05-02T04:44:31;38.57;;;28.43;;
15833;SDS011;8017;50.812;4.934;2023-05-02T04:47:33;39.00;;;28.57;;
15833;SDS011;8017;50.812;4.934;2023-05-02T04:50:36;40.00;;;30.00;;
15833;SDS011;8017;50.812;4.934;2023-05-02T04:53:38;41.53;;;30.87;;
15833;SDS011;8017;50.812;4.934;2023-05-02T04:56:40;43.63;;;31.30;;
15833;SDS011;8017;50.812;4.934;2023-05-02T04:59:42;39.17;;;31.50;;
15833;SDS011;8017;50.812;4.934;2023-05-02T05:02:44;41.23;;;30.77;;
15833;SDS011;8017;50.812;4.934;2023-05-02T05:05:47;47.13;;;33.30;;
15833;SDS011;8017;50.812;4.934;2023-05-02T05:08:49;42.07;;;32.97;;
15833;SDS011;8017;50.812;4.934;2023-05-02T05:11:51;44.77;;;32.10;;
15833;SDS011;8017;50.812;4.934;2023-05-02T05:14:53;44.40;;;33.83;;
15833;SDS011;8017;50.812;4.934;2023-05-02T05:17:55;47.37;;;34.63;;
15833;SDS011;8017;50.812;4.934;2023-05-02T05:20:59;44.80;;;33.77;;
15833;SDS011;8017;50.812;4.934;2023-05-02T05:24:00;45.30;;;33.80;;
15833;SDS011;8017;50.812;4.934;2023-05-02T05:27:02;40.70;;;32.97;;
15833;SDS011;8017;50.812;4.934;2023-05-02T05:30:05;44.17;;;33.67;;
15833;SDS011;8017;50.812;4.934;2023-05-02T05:33:09;42.37;;;32.50;;
15833;SDS011;8017;50.812;4.934;2023-05-02T05:36:12;45.77;;;32.40;;
15833;SDS011;8017;50.812;4.934;2023-05-02T05:39:14;46.90;;;34.40;;
15833;SDS011;8017;50.812;4.934;2023-05-02T05:42:17;41.13;;;31.03;;
15833;SDS011;8017;50.812;4.934;2023-05-02T05:45:19;40.83;;;31.93;;
15833;SDS011;8017;50.812;4.934;2023-05-02T05:48:22;45.37;;;33.13;;
15833;SDS011;8017;50.812;4.934;2023-05-02T05:51:25;40.23;;;31.70;;
15833;SDS011;8017;50.812;4.934;2023-05-02T05:54:27;41.57;;;30.47;;
15833;SDS011;8017;50.812;4.934;2023-05-02T05:57:29;41.80;;;31.13;;
15833;SDS011;8017;50.812;4.934;2023-05-02T06:00:33;38.23;;;29.87;;
15833;SDS011;8017;50.812;4.934;2023-05-02T06:03:35;42.13;;;30.83;;
15833;SDS011;8017;50.812;4.934;2023-05-02T06:06:38;36.30;;;28.87;;
15833;SDS011;8017;50.812;4.934;2023-05-02T06:09:40;41.17;;;30.00;;
15833;SDS011;8017;50.812;4.934;2023-05-02T06:12:42;40.97;;;28.00;;
15833;SDS011;8017;50.812;4.934;2023-05-02T06:15:44;36.00;;;27.23;;
15833;SDS011;8017;50.812;4.934;2023-05-02T06:18:46;43.70;;;29.30;;
15833;SDS011;8017;50.812;4.934;2023-05-02T06:21:51;41.83;;;29.27;;
15833;SDS011;8017;50.812;4.934;2023-05-02T06:24:53;40.30;;;29.73;;
15833;SDS011;8017;50.812;4.934;2023-05-02T06:27:56;38.30;;;28.47;;
15833;SDS011;8017;50.812;4.934;2023-05-02T06:30:58;45.30;;;30.77;;
15833;SDS011;8017;50.812;4.934;2023-05-02T06:34:00;37.93;;;28.20;;
15833;SDS011;8017;50.812;4.934;2023-05-02T06:37:04;35.47;;;27.63;;
15833;SDS011;8017;50.812;4.934;2023-05-02T06:40:06;36.70;;;28.60;;
15833;SDS011;8017;50.812;4.934;2023-05-02T06:43:09;34.03;;;25.53;;
15833;SDS011;8017;50.812;4.934;2023-05-02T06:46:11;29.17;;;23.30;;
15833;SDS011;8017;50.812;4.934;2023-05-02T06:49:13;25.30;;;19.67;;
15833;SDS011;8017;50.812;4.934;2023-05-02T06:52:16;26.07;;;20.87;;
15833;SDS011;8017;50.812;4.934;2023-05-02T06:55:18;27.53;;;20.63;;
15833;SDS011;8017;50.812;4.934;2023-05-02T06:58:20;28.53;;;20.00;;
15833;SDS011;8017;50.812;4.934;2023-05-02T07:01:22;29.83;;;21.57;;
15833;SDS011;8017;50.812;4.934;2023-05-02T07:04:24;31.60;;;22.13;;
15833;SDS011;8017;50.812;4.934;2023-05-02T07:07:27;25.90;;;19.60;;
15833;SDS011;8017;50.812;4.934;2023-05-02T07:10:29;26.60;;;19.60;;
15833;SDS011;8017;50.812;4.934;2023-05-02T07:13:31;22.97;;;17.90;;
15833;SDS011;8017;50.812;4.934;2023-05-02T07:16:33;19.23;;;15.20;;
15833;SDS011;8017;50.812;4.934;2023-05-02T07:19:35;17.27;;;12.07;;
15833;SDS011;8017;50.812;4.934;2023-05-02T07:22:38;20.83;;;12.37;;
15833;SDS011;8017;50.812;4.934;2023-05-02T07:25:40;13.60;;;10.60;;
15833;SDS011;8017;50.812;4.934;2023-05-02T07:28:42;13.77;;;9.70;;
15833;SDS011;8017;50.812;4.934;2023-05-02T07:31:44;14.13;;;8.67;;
15833;SDS011;8017;50.812;4.934;2023-05-02T07:34:46;11.37;;;8.27;;
15833;SDS011;8017;50.812;4.934;2023-05-02T07:37:49;12.97;;;8.13;;
15833;SDS011;8017;50.812;4.934;2023-05-02T07:40:51;10.87;;;7.60;;
15833;SDS011;8017;50.812;4.934;2023-05-02T07:43:53;12.77;;;7.63;;
15833;SDS011;8017;50.812;4.934;2023-05-02T07:46:56;12.93;;;7.40;;
15833;SDS011;8017;50.812;4.934;2023-05-02T07:49:58;8.67;;;6.97;;
15833;SDS011;8017;50.812;4.934;2023-05-02T07:53:02;8.23;;;7.43;;
15833;SDS011;8017;50.812;4.934;2023-05-02T07:56:04;8.30;;;6.63;;
15833;SDS011;8017;50.812;4.934;2023-05-02T07:59:07;8.57;;;6.50;;
15833;SDS011;8017;50.812;4.934;2023-05-02T08:02:10;9.43;;;7.93;;
15833;SDS011;8017;50.812;4.934;2023-05-02T08:05:12;10.87;;;7.40;;
15833;SDS011;8017;50.812;4.934;2023-05-02T08:08:16;10.13;;;7.23;;
15833;SDS011;8017;50.812;4.934;2023-05-02T08:11:17;6.93;;;6.17;;
15833;SDS011;8017;50.812;4.934;2023-05-02T08:14:21;7.50;;;5.67;;
15833;SDS011;8017;50.812;4.934;2023-05-02T08:17:22;10.07;;;6.20;;
15833;SDS011;8017;50.812;4.934;2023-05-02T08:20:24;10.50;;;6.20;;
15833;SDS011;8017;50.812;4.934;2023-05-02T08:23:28;10.27;;;7.00;;
15833;SDS011;8017;50.812;4.934;2023-05-02T08:26:30;7.80;;;5.60;;
15833;SDS011;8017;50.812;4.934;2023-05-02T08:29:32;8.33;;;5.07;;
15833;SDS011;8017;50.812;4.934;2023-05-02T08:32:34;8.17;;;5.70;;
15833;SDS011;8017;50.812;4.934;2023-05-02T08:35:37;8.60;;;5.77;;
15833;SDS011;8017;50.812;4.934;2023-05-02T08:38:40;7.80;;;5.40;;
15833;SDS011;8017;50.812;4.934;2023-05-02T08:41:42;8.27;;;5.07;;
15833;SDS011;8017;50.812;4.934;2023-05-02T08:44:45;8.13;;;5.70;;
15833;SDS011;8017;50.812;4.934;2023-05-02T08:47:47;6.57;;;5.27;;
15833;SDS011;8017;50.812;4.934;2023-05-02T08:50:50;9.33;;;5.50;;
15833;SDS011;8017;50.812;4.934;2023-05-02T08:53:54;6.07;;;4.53;;
15833;SDS011;8017;50.812;4.934;2023-05-02T08:56:58;10.63;;;5.57;;
15833;SDS011;8017;50.812;4.934;2023-05-02T09:00:02;8.37;;;5.10;;
15833;SDS011;8017;50.812;4.934;2023-05-02T09:03:06;6.83;;;4.20;;
15833;SDS011;8017;50.812;4.934;2023-05-02T09:06:17;9.27;;;5.07;;
15833;SDS011;8017;50.812;4.934;2023-05-02T09:09:21;7.00;;;4.33;;
15833;SDS011;8017;50.812;4.934;2023-05-02T09:12:24;9.97;;;4.67;;
15833;SDS011;8017;50.812;4.934;2023-05-02T09:15:26;9.33;;;4.70;;
15833;SDS011;8017;50.812;4.934;2023-05-02T09:18:29;7.43;;;4.90;;
15833;SDS011;8017;50.812;4.934;2023-05-02T09:21:34;5.33;;;3.70;;
15833;SDS011;8017;50.812;4.934;2023-05-02T09:24:38;6.77;;;3.80;;
15833;SDS011;8017;50.812;4.934;2023-05-02T09:27:47;6.70;;;4.23;;
15833;SDS011;8017;50.812;4.934;2023-05-02T09:30:51;6.80;;;3.97;;
15833;SDS011;8017;50.812;4.934;2023-05-02T09:34:07;7.07;;;4.23;;
15833;SDS011;8017;50.812;4.934;2023-05-02T09:37:10;6.43;;;4.00;;
15833;SDS011;8017;50.812;4.934;2023-05-02T09:40:15;6.13;;;3.33;;
15833;SDS011;8017;50.812;4.934;2023-05-02T09:43:18;7.00;;;3.50;;
15833;SDS011;8017;50.812;4.934;2023-05-02T09:46:20;5.80;;;3.50;;
15833;SDS011;8017;50.812;4.934;2023-05-02T09:49:37;5.27;;;3.97;;
15833;SDS011;8017;50.812;4.934;2023-05-02T09:52:40;5.93;;;3.10;;
15833;SDS011;8017;50.812;4.934;2023-05-02T09:56:02;6.33;;;3.83;;
15833;SDS011;8017;50.812;4.934;2023-05-02T09:59:11;8.03;;;4.03;;
15833;SDS011;8017;50.812;4.934;2023-05-02T10:02:13;7.13;;;3.67;;
15833;SDS011;8017;50.812;4.934;2023-05-02T10:05:16;6.23;;;3.30;;
15833;SDS011;8017;50.812;4.934;2023-05-02T10:08:19;7.77;;;3.67;;
15833;SDS011;8017;50.812;4.934;2023-05-02T10:11:23;5.50;;;3.37;;
15833;SDS011;8017;50.812;4.934;2023-05-02T10:14:25;5.47;;;3.60;;
15833;SDS011;8017;50.812;4.934;2023-05-02T10:17:29;5.63;;;3.13;;
15833;SDS011;8017;50.812;4.934;2023-05-02T10:20:35;6.57;;;3.53;;
15833;SDS011;8017;50.812;4.934;2023-05-02T10:23:42;6.43;;;3.50;;
15833;SDS011;8017;50.812;4.934;2023-05-02T10:26:45;6.97;;;3.70;;
15833;SDS011;8017;50.812;4.934;2023-05-02T10:29:48;5.87;;;3.33;;
15833;SDS011;8017;50.812;4.934;2023-05-02T10:32:52;4.30;;;3.00;;
15833;SDS011;8017;50.812;4.934;2023-05-02T10:35:54;6.13;;;2.90;;
15833;SDS011;8017;50.812;4.934;2023-05-02T10:38:56;8.03;;;2.90;;
15833;SDS011;8017;50.812;4.934;2023-05-02T10:42:00;6.20;;;3.27;;
15833;SDS011;8017;50.812;4.934;2023-05-02T10:45:04;5.17;;;2.90;;
15833;SDS011;8017;50.812;4.934;2023-05-02T10:48:15;5.83;;;3.20;;
15833;SDS011;8017;50.812;4.934;2023-05-02T10:51:26;7.93;;;3.10;;
15833;SDS011;8017;50.812;4.934;2023-05-02T10:54:29;10.00;;;3.30;;
15833;SDS011;8017;50.812;4.934;2023-05-02T10:57:32;6.03;;;3.13;;
15833;SDS011;8017;50.812;4.934;2023-05-02T11:00:34;7.20;;;3.17;;
15833;SDS011;8017;50.812;4.934;2023-05-02T11:03:55;10.43;;;3.40;;
15833;SDS011;8017;50.812;4.934;2023-05-02T11:07:16;6.40;;;3.00;;
15833;SDS011;8017;50.812;4.934;2023-05-02T11:10:25;4.97;;;2.57;;
15833;SDS011;8017;50.812;4.934;2023-05-02T11:17:04;7.20;;;3.00;;
15833;SDS011;8017;50.812;4.934;2023-05-02T11:23:27;6.30;;;2.90;;
15833;SDS011;8017;50.812;4.934;2023-05-02T11:26:29;6.67;;;2.93;;
15833;SDS011;8017;50.812;4.934;2023-05-02T11:29:51;4.67;;;3.03;;
15833;SDS011;8017;50.812;4.934;2023-05-02T11:33:09;5.93;;;3.20;;
15833;SDS011;8017;50.812;4.934;2023-05-02T11:36:21;6.17;;;3.07;;
15833;SDS011;8017;50.812;4.934;2023-05-02T11:39:29;6.87;;;2.97;;
15833;SDS011;8017;50.812;4.934;2023-05-02T11:42:32;5.73;;;3.20;;
15833;SDS011;8017;50.812;4.934;2023-05-02T11:45:36;4.07;;;2.97;;
15833;SDS011;8017;50.812;4.934;2023-05-02T11:48:38;9.57;;;3.53;;
15833;SDS011;8017;50.812;4.934;2023-05-02T11:51:41;6.33;;;3.63;;
15833;SDS011;8017;50.812;4.934;2023-05-02T11:54:43;6.43;;;3.47;;
15833;SDS011;8017;50.812;4.934;2023-05-02T11:57:46;4.90;;;3.30;;
15833;SDS011;8017;50.812;4.934;2023-05-02T12:00:49;4.33;;;2.93;;
15833;SDS011;8017;50.812;4.934;2023-05-02T12:04:00;6.07;;;3.00;;
15833;SDS011;8017;50.812;4.934;2023-05-02T12:07:02;9.40;;;3.23;;
15833;SDS011;8017;50.812;4.934;2023-05-02T12:10:05;5.53;;;3.10;;
15833;SDS011;8017;50.812;4.934;2023-05-02T12:13:07;5.80;;;3.20;;
15833;SDS011;8017;50.812;4.934;2023-05-02T12:16:11;6.63;;;3.43;;
15833;SDS011;8017;50.812;4.934;2023-05-02T12:19:13;4.10;;;2.87;;
15833;SDS011;8017;50.812;4.934;2023-05-02T12:22:17;7.70;;;3.20;;
15833;SDS011;8017;50.812;4.934;2023-05-02T12:25:19;8.00;;;3.30;;
15833;SDS011;8017;50.812;4.934;2023-05-02T12:28:21;4.90;;;2.77;;
15833;SDS011;8017;50.812;4.934;2023-05-02T12:31:25;7.13;;;2.80;;
15833;SDS011;8017;50.812;4.934;2023-05-02T12:34:31;6.17;;;2.70;;
15833;SDS011;8017;50.812;4.934;2023-05-02T12:37:33;6.17;;;2.83;;
15833;SDS011;8017;50.812;4.934;2023-05-02T12:40:35;4.40;;;2.87;;
15833;SDS011;8017;50.812;4.934;2023-05-02T12:43:44;7.30;;;2.97;;
15833;SDS011;8017;50.812;4.934;2023-05-02T12:46:58;8.13;;;3.83;;
15833;SDS011;8017;50.812;4.934;2023-05-02T12:50:00;9.13;;;3.83;;
15833;SDS011;8017;50.812;4.934;2023-05-02T12:53:02;4.90;;;2.97;;
15833;SDS011;8017;50.812;4.934;2023-05-02T12:56:05;7.20;;;3.50;;
15833;SDS011;8017;50.812;4.934;2023-05-02T12:59:08;5.03;;;2.90;;
15833;SDS011;8017;50.812;4.934;2023-05-02T13:02:12;5.90;;;3.23;;
15833;SDS011;8017;50.812;4.934;2023-05-02T13:05:14;5.47;;;3.10;;
15833;SDS011;8017;50.812;4.934;2023-05-02T13:08:17;7.53;;;3.33;;
15833;SDS011;8017;50.812;4.934;2023-05-02T13:11:19;7.10;;;3.27;;
15833;SDS011;8017;50.812;4.934;2023-05-02T13:14:21;9.13;;;3.53;;
15833;SDS011;8017;50.812;4.934;2023-05-02T13:17:25;10.40;;;4.80;;
15833;SDS011;8017;50.812;4.934;2023-05-02T13:20:26;8.73;;;3.40;;
15833;SDS011;8017;50.812;4.934;2023-05-02T13:23:28;9.23;;;3.60;;
15833;SDS011;8017;50.812;4.934;2023-05-02T13:26:30;6.83;;;3.40;;
15833;SDS011;8017;50.812;4.934;2023-05-02T13:29:32;6.80;;;3.30;;
15833;SDS011;8017;50.812;4.934;2023-05-02T13:32:36;6.30;;;2.80;;
15833;SDS011;8017;50.812;4.934;2023-05-02T13:35:39;9.03;;;3.40;;
15833;SDS011;8017;50.812;4.934;2023-05-02T13:38:41;7.60;;;3.10;;
15833;SDS011;8017;50.812;4.934;2023-05-02T13:41:43;6.33;;;3.50;;
15833;SDS011;8017;50.812;4.934;2023-05-02T13:44:45;5.57;;;3.80;;
15833;SDS011;8017;50.812;4.934;2023-05-02T13:47:48;7.50;;;3.67;;
15833;SDS011;8017;50.812;4.934;2023-05-02T13:50:50;7.80;;;3.50;;
15833;SDS011;8017;50.812;4.934;2023-05-02T13:53:52;6.83;;;3.33;;
15833;SDS011;8017;50.812;4.934;2023-05-02T13:56:54;6.47;;;3.40;;
15833;SDS011;8017;50.812;4.934;2023-05-02T13:59:56;5.13;;;3.07;;
15833;SDS011;8017;50.812;4.934;2023-05-02T14:02:59;7.30;;;3.43;;
15833;SDS011;8017;50.812;4.934;2023-05-02T14:06:01;8.17;;;3.03;;
15833;SDS011;8017;50.812;4.934;2023-05-02T14:09:04;6.53;;;3.50;;
15833;SDS011;8017;50.812;4.934;2023-05-02T14:12:06;5.60;;;3.60;;
15833;SDS011;8017;50.812;4.934;2023-05-02T14:15:08;4.80;;;3.00;;
15833;SDS011;8017;50.812;4.934;2023-05-02T14:18:12;5.23;;;3.50;;
15833;SDS011;8017;50.812;4.934;2023-05-02T14:21:15;9.73;;;3.90;;
15833;SDS011;8017;50.812;4.934;2023-05-02T14:24:17;7.10;;;3.33;;
15833;SDS011;8017;50.812;4.934;2023-05-02T14:27:19;6.57;;;4.07;;
15833;SDS011;8017;50.812;4.934;2023-05-02T14:30:22;7.77;;;4.00;;
15833;SDS011;8017;50.812;4.934;2023-05-02T14:33:25;8.17;;;4.03;;
15833;SDS011;8017;50.812;4.934;2023-05-02T14:36:27;7.13;;;3.57;;
15833;SDS011;8017;50.812;4.934;2023-05-02T14:39:29;5.97;;;3.40;;
15833;SDS011;8017;50.812;4.934;2023-05-02T14:42:31;7.13;;;3.80;;
15833;SDS011;8017;50.812;4.934;2023-05-02T14:45:33;5.13;;;3.60;;
15833;SDS011;8017;50.812;4.934;2023-05-02T14:48:36;9.70;;;4.20;;
15833;SDS011;8017;50.812;4.934;2023-05-02T14:51:38;6.37;;;3.60;;
15833;SDS011;8017;50.812;4.934;2023-05-02T14:54:41;4.93;;;3.33;;
15833;SDS011;8017;50.812;4.934;2023-05-02T14:57:43;7.07;;;3.93;;
15833;SDS011;8017;50.812;4.934;2023-05-02T15:00:46;5.60;;;3.83;;
15833;SDS011;8017;50.812;4.934;2023-05-02T15:03:49;8.73;;;3.80;;
15833;SDS011;8017;50.812;4.934;2023-05-02T15:06:52;6.27;;;3.60;;
15833;SDS011;8017;50.812;4.934;2023-05-02T15:09:54;6.83;;;4.43;;
15833;SDS011;8017;50.812;4.934;2023-05-02T15:12:56;6.80;;;4.43;;
15833;SDS011;8017;50.812;4.934;2023-05-02T15:15:58;7.20;;;3.90;;
15833;SDS011;8017;50.812;4.934;2023-05-02T15:19:01;6.90;;;4.37;;
15833;SDS011;8017;50.812;4.934;2023-05-02T15:22:03;7.93;;;4.33;;
15833;SDS011;8017;50.812;4.934;2023-05-02T15:25:05;7.20;;;4.00;;
15833;SDS011;8017;50.812;4.934;2023-05-02T15:28:08;5.87;;;4.30;;
15833;SDS011;8017;50.812;4.934;2023-05-02T15:31:10;6.13;;;3.93;;
15833;SDS011;8017;50.812;4.934;2023-05-02T15:34:13;6.70;;;3.60;;
15833;SDS011;8017;50.812;4.934;2023-05-02T15:37:15;5.50;;;3.40;;
15833;SDS011;8017;50.812;4.934;2023-05-02T15:40:17;6.00;;;3.17;;
15833;SDS011;8017;50.812;4.934;2023-05-02T15:43:19;5.73;;;3.53;;
15833;SDS011;8017;50.812;4.934;2023-05-02T15:46:21;7.97;;;3.53;;
15833;SDS011;8017;50.812;4.934;2023-05-02T15:49:24;7.83;;;4.03;;
15833;SDS011;8017;50.812;4.934;2023-05-02T15:52:31;6.77;;;4.00;;
15833;SDS011;8017;50.812;4.934;2023-05-02T15:55:33;6.80;;;3.40;;
15833;SDS011;8017;50.812;4.934;2023-05-02T15:58:35;9.77;;;3.63;;
15833;SDS011;8017;50.812;4.934;2023-05-02T16:01:38;6.17;;;3.33;;
15833;SDS011;8017;50.812;4.934;2023-05-02T16:04:41;7.33;;;3.33;;
15833;SDS011;8017;50.812;4.934;2023-05-02T16:07:43;4.87;;;3.70;;
15833;SDS011;8017;50.812;4.934;2023-05-02T16:10:45;8.80;;;3.70;;
15833;SDS011;8017;50.812;4.934;2023-05-02T16:13:47;6.00;;;3.43;;
15833;SDS011;8017;50.812;4.934;2023-05-02T16:16:49;7.63;;;3.40;;
15833;SDS011;8017;50.812;4.934;2023-05-02T16:19:52;6.80;;;4.03;;
15833;SDS011;8017;50.812;4.934;2023-05-02T16:22:54;7.33;;;3.67;;
15833;SDS011;8017;50.812;4.934;2023-05-02T16:25:56;6.20;;;3.20;;
15833;SDS011;8017;50.812;4.934;2023-05-02T16:28:58;4.70;;;3.10;;
15833;SDS011;8017;50.812;4.934;2023-05-02T16:32:00;7.57;;;3.53;;
15833;SDS011;8017;50.812;4.934;2023-05-02T16:35:04;7.37;;;3.20;;
15833;SDS011;8017;50.812;4.934;2023-05-02T16:38:07;5.93;;;3.23;;
15833;SDS011;8017;50.812;4.934;2023-05-02T16:41:09;6.23;;;3.57;;
15833;SDS011;8017;50.812;4.934;2023-05-02T16:44:11;7.80;;;3.93;;
15833;SDS011;8017;50.812;4.934;2023-05-02T16:47:13;8.53;;;3.80;;
15833;SDS011;8017;50.812;4.934;2023-05-02T16:50:16;4.50;;;3.23;;
15833;SDS011;8017;50.812;4.934;2023-05-02T16:53:18;6.63;;;3.57;;
15833;SDS011;8017;50.812;4.934;2023-05-02T16:56:20;5.57;;;3.63;;
15833;SDS011;8017;50.812;4.934;2023-05-02T16:59:21;7.97;;;4.27;;
15833;SDS011;8017;50.812;4.934;2023-05-02T17:02:23;10.53;;;3.60;;
15833;SDS011;8017;50.812;4.934;2023-05-02T17:05:27;10.13;;;3.77;;
15833;SDS011;8017;50.812;4.934;2023-05-02T17:08:29;5.93;;;3.23;;
15833;SDS011;8017;50.812;4.934;2023-05-02T17:11:31;6.37;;;3.83;;
15833;SDS011;8017;50.812;4.934;2023-05-02T17:14:33;8.07;;;3.43;;
15833;SDS011;8017;50.812;4.934;2023-05-02T17:17:36;6.87;;;3.20;;
15833;SDS011;8017;50.812;4.934;2023-05-02T17:20:39;6.50;;;3.77;;
15833;SDS011;8017;50.812;4.934;2023-05-02T17:23:41;5.90;;;3.57;;
15833;SDS011;8017;50.812;4.934;2023-05-02T17:26:43;7.90;;;3.93;;
15833;SDS011;8017;50.812;4.934;2023-05-02T17:29:45;4.80;;;3.20;;
15833;SDS011;8017;50.812;4.934;2023-05-02T17:32:47;7.10;;;3.70;;
15833;SDS011;8017;50.812;4.934;2023-05-02T17:35:50;5.97;;;3.83;;
15833;SDS011;8017;50.812;4.934;2023-05-02T17:38:52;6.67;;;3.63;;
15833;SDS011;8017;50.812;4.934;2023-05-02T17:41:54;6.83;;;3.93;;
15833;SDS011;8017;50.812;4.934;2023-05-02T17:44:56;6.70;;;3.60;;
15833;SDS011;8017;50.812;4.934;2023-05-02T17:47:58;6.67;;;3.77;;
15833;SDS011;8017;50.812;4.934;2023-05-02T17:51:01;8.07;;;4.00;;
15833;SDS011;8017;50.812;4.934;2023-05-02T17:54:03;8.10;;;4.40;;
15833;SDS011;8017;50.812;4.934;2023-05-02T17:57:05;7.07;;;4.27;;
15833;SDS011;8017;50.812;4.934;2023-05-02T18:00:08;8.90;;;5.23;;
15833;SDS011;8017;50.812;4.934;2023-05-02T18:03:11;8.97;;;6.50;;
15833;SDS011;8017;50.812;4.934;2023-05-02T18:06:15;8.20;;;4.00;;
15833;SDS011;8017;50.812;4.934;2023-05-02T18:09:17;12.30;;;4.43;;
15833;SDS011;8017;50.812;4.934;2023-05-02T18:12:19;6.80;;;3.83;;
15833;SDS011;8017;50.812;4.934;2023-05-02T18:15:21;7.67;;;3.80;;
15833;SDS011;8017;50.812;4.934;2023-05-02T18:18:23;5.33;;;3.40;;
15833;SDS011;8017;50.812;4.934;2023-05-02T18:21:27;6.60;;;3.53;;
15833;SDS011;8017;50.812;4.934;2023-05-02T18:24:30;5.90;;;3.90;;
15833;SDS011;8017;50.812;4.934;2023-05-02T18:27:32;6.43;;;3.63;;
15833;SDS011;8017;50.812;4.934;2023-05-02T18:30:34;8.02;;;3.92;;
15833;SDS011;8017;50.812;4.934;2023-05-02T18:33:37;9.53;;;4.93;;
15833;SDS011;8017;50.812;4.934;2023-05-02T18:36:41;13.47;;;5.37;;
15833;SDS011;8017;50.812;4.934;2023-05-02T18:39:44;7.70;;;4.10;;